sensor_id;sensor_type;location;lat;lon;timestamp;P1;durP1;ratioP1;P2;durP2;ratioP2
51686;SDS011;37774;52.192;4.584;2023-07-29T00:05:28;2.35;;;1.13;;
51686;SDS011;37774;52.192;4.584;2023-07-29T00:08:21;4.18;;;0.95;;
51686;SDS011;37774;52.192;4.584;2023-07-29T00:11:25;7.43;;;1.80;;
51686;SDS011;37774;52.192;4.584;2023-07-29T00:14:17;2.25;;;1.10;;
51686;SDS011;37774;52.192;4.584;2023-07-29T00:17:03;4.32;;;1.35;;
51686;SDS011;37774;52.192;4.584;2023-07-29T00:19:51;5.10;;;0.98;;
51686;SDS011;37774;52.192;4.584;2023-07-29T00:28:16;5.47;;;1.47;;
51686;SDS011;37774;52.192;4.584;2023-07-29T00:31:07;2.28;;;1.35;;
51686;SDS011;37774;52.192;4.584;2023-07-29T00:33:55;2.45;;;1.13;;
51686;SDS011;37774;52.192;4.584;2023-07-29T00:36:42;3.78;;;1.40;;
51686;SDS011;37774;52.192;4.584;2023-07-29T00:39:32;5.50;;;1.35;;
51686;SDS011;37774;52.192;4.584;2023-07-29T00:42:19;4.30;;;1.30;;
51686;SDS011;37774;52.192;4.584;2023-07-29T00:45:07;8.68;;;1.58;;
51686;SDS011;37774;52.192;4.584;2023-07-29T00:48:09;11.95;;;1.85;;
51686;SDS011;37774;52.192;4.584;2023-07-29T00:51:00;9.15;;;1.27;;
51686;SDS011;37774;52.192;4.584;2023-07-29T00:54:05;2.67;;;1.35;;
51686;SDS011;37774;52.192;4.584;2023-07-29T01:04:38;4.85;;;1.52;;
51686;SDS011;37774;52.192;4.584;2023-07-29T01:07:24;1.75;;;1.20;;
51686;SDS011;37774;52.192;4.584;2023-07-29T01:10:18;5.30;;;1.00;;
51686;SDS011;37774;52.192;4.584;2023-07-29T01:13:13;3.58;;;1.17;;
51686;SDS011;37774;52.192;4.584;2023-07-29T01:16:07;3.90;;;1.08;;
51686;SDS011;37774;52.192;4.584;2023-07-29T01:19:01;6.93;;;1.35;;
51686;SDS011;37774;52.192;4.584;2023-07-29T01:21:52;3.20;;;1.35;;
51686;SDS011;37774;52.192;4.584;2023-07-29T01:24:39;2.50;;;1.35;;
51686;SDS011;37774;52.192;4.584;2023-07-29T01:27:24;5.63;;;1.70;;
51686;SDS011;37774;52.192;4.584;2023-07-29T01:30:10;5.68;;;1.52;;
51686;SDS011;37774;52.192;4.584;2023-07-29T01:32:57;2.28;;;1.27;;
51686;SDS011;37774;52.192;4.584;2023-07-29T01:35:50;3.38;;;1.30;;
51686;SDS011;37774;52.192;4.584;2023-07-29T01:38:37;3.88;;;1.67;;
51686;SDS011;37774;52.192;4.584;2023-07-29T01:41:26;2.58;;;1.40;;
51686;SDS011;37774;52.192;4.584;2023-07-29T01:46:59;4.90;;;1.45;;
51686;SDS011;37774;52.192;4.584;2023-07-29T01:49:44;3.80;;;1.38;;
51686;SDS011;37774;52.192;4.584;2023-07-29T01:52:30;5.68;;;1.85;;
51686;SDS011;37774;52.192;4.584;2023-07-29T01:55:15;4.32;;;1.67;;
51686;SDS011;37774;52.192;4.584;2023-07-29T01:58:02;4.78;;;2.05;;
51686;SDS011;37774;52.192;4.584;2023-07-29T02:00:47;8.77;;;2.05;;
51686;SDS011;37774;52.192;4.584;2023-07-29T02:03:32;3.60;;;1.42;;
51686;SDS011;37774;52.192;4.584;2023-07-29T02:06:18;4.97;;;1.50;;
51686;SDS011;37774;52.192;4.584;2023-07-29T02:09:03;4.20;;;1.45;;
51686;SDS011;37774;52.192;4.584;2023-07-29T02:11:49;6.63;;;2.38;;
51686;SDS011;37774;52.192;4.584;2023-07-29T02:14:36;4.30;;;2.28;;
51686;SDS011;37774;52.192;4.584;2023-07-29T02:17:21;12.05;;;2.30;;
51686;SDS011;37774;52.192;4.584;2023-07-29T02:20:07;6.20;;;2.50;;
51686;SDS011;37774;52.192;4.584;2023-07-29T02:22:54;5.85;;;2.40;;
51686;SDS011;37774;52.192;4.584;2023-07-29T02:25:40;6.65;;;2.38;;
51686;SDS011;37774;52.192;4.584;2023-07-29T02:28:25;6.90;;;2.03;;
51686;SDS011;37774;52.192;4.584;2023-07-29T02:31:17;4.55;;;2.50;;
51686;SDS011;37774;52.192;4.584;2023-07-29T02:34:05;4.68;;;1.65;;
51686;SDS011;37774;52.192;4.584;2023-07-29T02:36:50;8.73;;;2.25;;
51686;SDS011;37774;52.192;4.584;2023-07-29T02:39:35;3.08;;;1.98;;
51686;SDS011;37774;52.192;4.584;2023-07-29T02:42:21;5.25;;;1.85;;
51686;SDS011;37774;52.192;4.584;2023-07-29T02:45:07;7.72;;;2.05;;
51686;SDS011;37774;52.192;4.584;2023-07-29T02:47:55;7.25;;;2.17;;
51686;SDS011;37774;52.192;4.584;2023-07-29T02:50:40;6.70;;;1.98;;
51686;SDS011;37774;52.192;4.584;2023-07-29T02:53:26;5.97;;;1.77;;
51686;SDS011;37774;52.192;4.584;2023-07-29T02:56:11;5.57;;;2.05;;
51686;SDS011;37774;52.192;4.584;2023-07-29T02:58:57;10.93;;;2.60;;
51686;SDS011;37774;52.192;4.584;2023-07-29T03:01:42;4.78;;;2.08;;
51686;SDS011;37774;52.192;4.584;2023-07-29T03:04:29;10.13;;;2.65;;
51686;SDS011;37774;52.192;4.584;2023-07-29T03:07:14;3.90;;;2.17;;
51686;SDS011;37774;52.192;4.584;2023-07-29T03:10:00;7.72;;;1.95;;
51686;SDS011;37774;52.192;4.584;2023-07-29T03:12:45;6.97;;;2.33;;
51686;SDS011;37774;52.192;4.584;2023-07-29T03:15:31;6.18;;;2.53;;
51686;SDS011;37774;52.192;4.584;2023-07-29T03:18:17;6.57;;;2.20;;
51686;SDS011;37774;52.192;4.584;2023-07-29T03:21:04;4.55;;;2.15;;
51686;SDS011;37774;52.192;4.584;2023-07-29T03:23:51;9.57;;;2.95;;
51686;SDS011;37774;52.192;4.584;2023-07-29T03:26:37;6.45;;;3.08;;
51686;SDS011;37774;52.192;4.584;2023-07-29T03:29:22;9.80;;;2.30;;
51686;SDS011;37774;52.192;4.584;2023-07-29T03:32:08;5.57;;;2.50;;
51686;SDS011;37774;52.192;4.584;2023-07-29T03:34:53;5.95;;;2.90;;
51686;SDS011;37774;52.192;4.584;2023-07-29T03:37:40;5.50;;;2.50;;
51686;SDS011;37774;52.192;4.584;2023-07-29T03:40:26;11.50;;;2.42;;
51686;SDS011;37774;52.192;4.584;2023-07-29T03:43:12;7.38;;;2.30;;
51686;SDS011;37774;52.192;4.584;2023-07-29T03:45:57;8.15;;;2.65;;
51686;SDS011;37774;52.192;4.584;2023-07-29T03:48:42;12.25;;;3.10;;
51686;SDS011;37774;52.192;4.584;2023-07-29T03:51:28;6.78;;;2.38;;
51686;SDS011;37774;52.192;4.584;2023-07-29T03:54:15;8.55;;;2.50;;
51686;SDS011;37774;52.192;4.584;2023-07-29T03:57:00;8.50;;;3.30;;
51686;SDS011;37774;52.192;4.584;2023-07-29T03:59:46;12.00;;;2.55;;
51686;SDS011;37774;52.192;4.584;2023-07-29T04:02:31;6.93;;;3.03;;
51686;SDS011;37774;52.192;4.584;2023-07-29T04:05:17;6.95;;;2.50;;
51686;SDS011;37774;52.192;4.584;2023-07-29T04:08:02;13.50;;;3.13;;
51686;SDS011;37774;52.192;4.584;2023-07-29T04:10:49;7.35;;;3.28;;
51686;SDS011;37774;52.192;4.584;2023-07-29T04:13:34;14.00;;;3.30;;
51686;SDS011;37774;52.192;4.584;2023-07-29T04:16:21;6.25;;;3.15;;
51686;SDS011;37774;52.192;4.584;2023-07-29T04:19:06;8.93;;;2.50;;
51686;SDS011;37774;52.192;4.584;2023-07-29T04:21:52;8.45;;;3.08;;
51686;SDS011;37774;52.192;4.584;2023-07-29T04:24:37;15.65;;;3.03;;
51686;SDS011;37774;52.192;4.584;2023-07-29T04:27:24;4.55;;;2.33;;
51686;SDS011;37774;52.192;4.584;2023-07-29T04:30:10;8.55;;;2.90;;
51686;SDS011;37774;52.192;4.584;2023-07-29T04:32:55;7.40;;;2.35;;
51686;SDS011;37774;52.192;4.584;2023-07-29T04:35:41;13.77;;;2.85;;
51686;SDS011;37774;52.192;4.584;2023-07-29T04:38:32;10.98;;;3.08;;
51686;SDS011;37774;52.192;4.584;2023-07-29T04:41:18;5.03;;;2.45;;
51686;SDS011;37774;52.192;4.584;2023-07-29T04:44:05;6.88;;;3.08;;
51686;SDS011;37774;52.192;4.584;2023-07-29T04:46:51;4.55;;;2.03;;
51686;SDS011;37774;52.192;4.584;2023-07-29T04:49:36;13.02;;;2.78;;
51686;SDS011;37774;52.192;4.584;2023-07-29T04:52:22;6.75;;;2.83;;
51686;SDS011;37774;52.192;4.584;2023-07-29T04:55:07;4.38;;;2.65;;
51686;SDS011;37774;52.192;4.584;2023-07-29T04:57:53;9.15;;;3.20;;
51686;SDS011;37774;52.192;4.584;2023-07-29T05:00:39;11.75;;;3.38;;
51686;SDS011;37774;52.192;4.584;2023-07-29T05:03:25;12.88;;;3.97;;
51686;SDS011;37774;52.192;4.584;2023-07-29T05:06:11;6.20;;;2.75;;
51686;SDS011;37774;52.192;4.584;2023-07-29T05:08:56;15.15;;;4.03;;
51686;SDS011;37774;52.192;4.584;2023-07-29T05:11:42;13.70;;;3.47;;
51686;SDS011;37774;52.192;4.584;2023-07-29T05:14:29;11.18;;;3.05;;
51686;SDS011;37774;52.192;4.584;2023-07-29T05:17:16;10.65;;;3.10;;
51686;SDS011;37774;52.192;4.584;2023-07-29T05:20:01;17.45;;;3.78;;
51686;SDS011;37774;52.192;4.584;2023-07-29T05:22:46;8.00;;;3.08;;
51686;SDS011;37774;52.192;4.584;2023-07-29T05:25:32;12.77;;;3.45;;
51686;SDS011;37774;52.192;4.584;2023-07-29T05:28:18;10.70;;;3.50;;
51686;SDS011;37774;52.192;4.584;2023-07-29T05:31:04;9.55;;;3.95;;
51686;SDS011;37774;52.192;4.584;2023-07-29T05:33:50;10.52;;;3.95;;
51686;SDS011;37774;52.192;4.584;2023-07-29T05:36:36;17.50;;;4.65;;
51686;SDS011;37774;52.192;4.584;2023-07-29T05:39:22;10.23;;;3.00;;
51686;SDS011;37774;52.192;4.584;2023-07-29T05:42:08;9.48;;;3.45;;
51686;SDS011;37774;52.192;4.584;2023-07-29T05:44:53;12.15;;;3.42;;
51686;SDS011;37774;52.192;4.584;2023-07-29T05:47:38;12.10;;;3.45;;
51686;SDS011;37774;52.192;4.584;2023-07-29T05:50:25;8.77;;;3.17;;
51686;SDS011;37774;52.192;4.584;2023-07-29T05:53:11;15.55;;;3.95;;
51686;SDS011;37774;52.192;4.584;2023-07-29T05:55:56;15.70;;;4.10;;
51686;SDS011;37774;52.192;4.584;2023-07-29T05:58:42;8.23;;;3.45;;
51686;SDS011;37774;52.192;4.584;2023-07-29T06:01:28;8.48;;;3.40;;
51686;SDS011;37774;52.192;4.584;2023-07-29T06:04:13;10.93;;;3.50;;
51686;SDS011;37774;52.192;4.584;2023-07-29T06:07:00;10.18;;;3.60;;
51686;SDS011;37774;52.192;4.584;2023-07-29T06:09:46;6.00;;;2.90;;
51686;SDS011;37774;52.192;4.584;2023-07-29T06:12:31;9.50;;;3.05;;
51686;SDS011;37774;52.192;4.584;2023-07-29T06:15:16;8.50;;;2.78;;
51686;SDS011;37774;52.192;4.584;2023-07-29T06:18:05;7.50;;;2.53;;
51686;SDS011;37774;52.192;4.584;2023-07-29T06:20:51;12.50;;;3.05;;
51686;SDS011;37774;52.192;4.584;2023-07-29T06:23:38;8.27;;;2.75;;
51686;SDS011;37774;52.192;4.584;2023-07-29T06:26:23;10.52;;;2.97;;
51686;SDS011;37774;52.192;4.584;2023-07-29T06:29:09;12.45;;;3.00;;
51686;SDS011;37774;52.192;4.584;2023-07-29T06:31:54;8.55;;;3.15;;
51686;SDS011;37774;52.192;4.584;2023-07-29T06:34:40;12.50;;;3.28;;
51686;SDS011;37774;52.192;4.584;2023-07-29T06:37:25;9.38;;;2.70;;
51686;SDS011;37774;52.192;4.584;2023-07-29T06:40:12;11.73;;;2.90;;
51686;SDS011;37774;52.192;4.584;2023-07-29T06:42:57;12.30;;;2.78;;
51686;SDS011;37774;52.192;4.584;2023-07-29T06:45:43;9.88;;;3.10;;
51686;SDS011;37774;52.192;4.584;2023-07-29T06:48:28;9.50;;;2.53;;
51686;SDS011;37774;52.192;4.584;2023-07-29T06:51:14;12.35;;;2.40;;
51686;SDS011;37774;52.192;4.584;2023-07-29T06:54:00;12.82;;;2.13;;
51686;SDS011;37774;52.192;4.584;2023-07-29T06:56:47;6.05;;;1.45;;
51686;SDS011;37774;52.192;4.584;2023-07-29T07:13:36;8.00;;;1.40;;
51686;SDS011;37774;52.192;4.584;2023-07-29T07:16:21;4.93;;;1.25;;
51686;SDS011;37774;52.192;4.584;2023-07-29T07:19:06;4.57;;;1.40;;
51686;SDS011;37774;52.192;4.584;2023-07-29T07:21:52;11.52;;;1.60;;
51686;SDS011;37774;52.192;4.584;2023-07-29T07:24:37;7.95;;;1.52;;
51686;SDS011;37774;52.192;4.584;2023-07-29T07:27:25;5.38;;;1.45;;
51686;SDS011;37774;52.192;4.584;2023-07-29T07:30:12;7.93;;;1.40;;
51686;SDS011;37774;52.192;4.584;2023-07-29T07:32:58;5.80;;;1.10;;
51686;SDS011;37774;52.192;4.584;2023-07-29T07:35:43;11.27;;;2.47;;
51686;SDS011;37774;52.192;4.584;2023-07-29T07:38:28;5.07;;;1.20;;
51686;SDS011;37774;52.192;4.584;2023-07-29T07:41:14;3.85;;;1.20;;
51686;SDS011;37774;52.192;4.584;2023-07-29T07:44:00;6.43;;;1.30;;
51686;SDS011;37774;52.192;4.584;2023-07-29T07:46:47;12.05;;;1.58;;
51686;SDS011;37774;52.192;4.584;2023-07-29T07:49:32;3.22;;;0.93;;
51686;SDS011;37774;52.192;4.584;2023-07-29T07:52:18;6.03;;;1.17;;
51686;SDS011;37774;52.192;4.584;2023-07-29T07:55:04;8.38;;;1.05;;
51686;SDS011;37774;52.192;4.584;2023-07-29T07:57:50;8.07;;;1.35;;
51686;SDS011;37774;52.192;4.584;2023-07-29T08:00:35;3.60;;;1.30;;
51686;SDS011;37774;52.192;4.584;2023-07-29T08:03:22;3.72;;;1.08;;
51686;SDS011;37774;52.192;4.584;2023-07-29T08:06:08;5.15;;;1.65;;
51686;SDS011;37774;52.192;4.584;2023-07-29T08:08:53;6.85;;;1.60;;
51686;SDS011;37774;52.192;4.584;2023-07-29T08:11:47;5.43;;;1.23;;
51686;SDS011;37774;52.192;4.584;2023-07-29T08:14:32;5.00;;;1.45;;
51686;SDS011;37774;52.192;4.584;2023-07-29T08:17:18;9.70;;;1.98;;
51686;SDS011;37774;52.192;4.584;2023-07-29T08:20:05;6.47;;;1.45;;
51686;SDS011;37774;52.192;4.584;2023-07-29T08:22:51;6.05;;;1.40;;
51686;SDS011;37774;52.192;4.584;2023-07-29T08:25:37;8.13;;;1.75;;
51686;SDS011;37774;52.192;4.584;2023-07-29T08:28:22;6.38;;;1.25;;
51686;SDS011;37774;52.192;4.584;2023-07-29T08:31:11;6.07;;;1.70;;
51686;SDS011;37774;52.192;4.584;2023-07-29T09:03:46;9.20;;;1.30;;
51686;SDS011;37774;52.192;4.584;2023-07-29T09:06:36;6.63;;;1.45;;
51686;SDS011;37774;52.192;4.584;2023-07-29T09:09:23;11.25;;;1.10;;
51686;SDS011;37774;52.192;4.584;2023-07-29T09:12:27;6.35;;;1.30;;
51686;SDS011;37774;52.192;4.584;2023-07-29T09:15:39;5.55;;;1.05;;
51686;SDS011;37774;52.192;4.584;2023-07-29T09:42:49;5.35;;;1.27;;
51686;SDS011;37774;52.192;4.584;2023-07-29T09:45:47;6.95;;;1.48;;
51686;SDS011;37774;52.192;4.584;2023-07-29T09:48:32;5.78;;;1.52;;
51686;SDS011;37774;52.192;4.584;2023-07-29T09:51:19;3.03;;;1.40;;
51686;SDS011;37774;52.192;4.584;2023-07-29T09:54:15;8.80;;;1.60;;
51686;SDS011;37774;52.192;4.584;2023-07-29T09:57:01;8.27;;;1.33;;
51686;SDS011;37774;52.192;4.584;2023-07-29T09:59:55;7.60;;;1.83;;
51686;SDS011;37774;52.192;4.584;2023-07-29T10:02:42;1.75;;;1.30;;
51686;SDS011;37774;52.192;4.584;2023-07-29T10:05:28;12.82;;;1.63;;
51686;SDS011;37774;52.192;4.584;2023-07-29T10:08:14;2.35;;;0.98;;
51686;SDS011;37774;52.192;4.584;2023-07-29T10:11:00;3.97;;;1.30;;
51686;SDS011;37774;52.192;4.584;2023-07-29T10:13:46;7.32;;;1.67;;
51686;SDS011;37774;52.192;4.584;2023-07-29T10:16:34;1.77;;;0.88;;
51686;SDS011;37774;52.192;4.584;2023-07-29T10:19:21;6.22;;;1.25;;
51686;SDS011;37774;52.192;4.584;2023-07-29T10:22:07;6.53;;;1.38;;
51686;SDS011;37774;52.192;4.584;2023-07-29T10:24:54;6.97;;;1.60;;
51686;SDS011;37774;52.192;4.584;2023-07-29T10:27:42;11.95;;;1.58;;
51686;SDS011;37774;52.192;4.584;2023-07-29T10:30:28;6.85;;;1.60;;
51686;SDS011;37774;52.192;4.584;2023-07-29T10:33:15;6.50;;;1.52;;
51686;SDS011;37774;52.192;4.584;2023-07-29T10:36:01;2.90;;;1.33;;
51686;SDS011;37774;52.192;4.584;2023-07-29T10:38:47;11.38;;;1.88;;
51686;SDS011;37774;52.192;4.584;2023-07-29T10:44:50;7.50;;;1.98;;
51686;SDS011;37774;52.192;4.584;2023-07-29T10:47:36;10.57;;;2.15;;
51686;SDS011;37774;52.192;4.584;2023-07-29T10:50:23;5.63;;;1.83;;
51686;SDS011;37774;52.192;4.584;2023-07-29T10:53:10;3.17;;;1.55;;
51686;SDS011;37774;52.192;4.584;2023-07-29T10:55:56;5.40;;;1.40;;
51686;SDS011;37774;52.192;4.584;2023-07-29T10:58:43;7.93;;;1.55;;
51686;SDS011;37774;52.192;4.584;2023-07-29T11:01:29;6.50;;;1.52;;
51686;SDS011;37774;52.192;4.584;2023-07-29T11:04:23;4.22;;;1.48;;
51686;SDS011;37774;52.192;4.584;2023-07-29T11:07:25;4.32;;;1.10;;
51686;SDS011;37774;52.192;4.584;2023-07-29T11:10:13;2.67;;;0.82;;
51686;SDS011;37774;52.192;4.584;2023-07-29T11:12:59;1.63;;;0.82;;
51686;SDS011;37774;52.192;4.584;2023-07-29T11:15:45;4.07;;;0.55;;
51686;SDS011;37774;52.192;4.584;2023-07-29T11:18:32;1.08;;;0.60;;
51686;SDS011;37774;52.192;4.584;2023-07-29T11:24:15;3.75;;;0.75;;
51686;SDS011;37774;52.192;4.584;2023-07-29T11:27:05;1.27;;;0.63;;
51686;SDS011;37774;52.192;4.584;2023-07-29T11:29:55;14.27;;;1.88;;
51686;SDS011;37774;52.192;4.584;2023-07-29T11:32:42;2.30;;;0.95;;
51686;SDS011;37774;52.192;4.584;2023-07-29T11:35:28;0.93;;;0.70;;
51686;SDS011;37774;52.192;4.584;2023-07-29T11:38:15;0.68;;;0.55;;
51686;SDS011;37774;52.192;4.584;2023-07-29T11:41:02;1.80;;;0.63;;
51686;SDS011;37774;52.192;4.584;2023-07-29T11:43:48;0.50;;;0.35;;
51686;SDS011;37774;52.192;4.584;2023-07-29T11:46:34;6.53;;;1.20;;
51686;SDS011;37774;52.192;4.584;2023-07-29T11:49:19;1.70;;;0.60;;
51686;SDS011;37774;52.192;4.584;2023-07-29T11:52:06;1.98;;;0.47;;
51686;SDS011;37774;52.192;4.584;2023-07-29T11:54:52;2.20;;;0.80;;
51686;SDS011;37774;52.192;4.584;2023-07-29T11:57:40;3.33;;;0.63;;
51686;SDS011;37774;52.192;4.584;2023-07-29T12:00:27;5.18;;;1.13;;
51686;SDS011;37774;52.192;4.584;2023-07-29T12:03:13;1.58;;;1.00;;
51686;SDS011;37774;52.192;4.584;2023-07-29T12:06:01;1.63;;;0.88;;
51686;SDS011;37774;52.192;4.584;2023-07-29T12:08:47;2.92;;;1.40;;
51686;SDS011;37774;52.192;4.584;2023-07-29T12:11:32;3.42;;;0.90;;
51686;SDS011;37774;52.192;4.584;2023-07-29T12:14:22;2.57;;;1.30;;
51686;SDS011;37774;52.192;4.584;2023-07-29T12:17:15;1.85;;;1.17;;
51686;SDS011;37774;52.192;4.584;2023-07-29T12:22:42;1.43;;;0.70;;
51686;SDS011;37774;52.192;4.584;2023-07-29T13:51:55;2.50;;;0.88;;
51686;SDS011;37774;52.192;4.584;2023-07-29T13:54:40;3.63;;;0.75;;
51686;SDS011;37774;52.192;4.584;2023-07-29T13:57:26;4.40;;;1.05;;
51686;SDS011;37774;52.192;4.584;2023-07-29T14:00:13;3.53;;;0.88;;
51686;SDS011;37774;52.192;4.584;2023-07-29T14:02:59;2.10;;;1.13;;
51686;SDS011;37774;52.192;4.584;2023-07-29T14:05:45;2.20;;;1.13;;
51686;SDS011;37774;52.192;4.584;2023-07-29T14:11:37;2.88;;;1.23;;
51686;SDS011;37774;52.192;4.584;2023-07-29T14:14:28;4.03;;;0.88;;
51686;SDS011;37774;52.192;4.584;2023-07-29T14:37:00;6.32;;;1.50;;
51686;SDS011;37774;52.192;4.584;2023-07-29T15:15:41;5.70;;;1.92;;
51686;SDS011;37774;52.192;4.584;2023-07-29T15:18:27;4.28;;;1.25;;
51686;SDS011;37774;52.192;4.584;2023-07-29T15:21:17;12.35;;;1.25;;
51686;SDS011;37774;52.192;4.584;2023-07-29T15:24:02;3.63;;;1.30;;
51686;SDS011;37774;52.192;4.584;2023-07-29T15:26:47;4.90;;;1.27;;
51686;SDS011;37774;52.192;4.584;2023-07-29T15:29:33;1.65;;;0.80;;
51686;SDS011;37774;52.192;4.584;2023-07-29T15:32:20;4.05;;;1.23;;
51686;SDS011;37774;52.192;4.584;2023-07-29T15:35:06;2.85;;;1.08;;
51686;SDS011;37774;52.192;4.584;2023-07-29T15:37:51;4.47;;;1.38;;
51686;SDS011;37774;52.192;4.584;2023-07-29T15:40:37;9.23;;;1.30;;
51686;SDS011;37774;52.192;4.584;2023-07-29T15:43:23;6.00;;;1.30;;
51686;SDS011;37774;52.192;4.584;2023-07-29T15:46:08;2.35;;;0.95;;
51686;SDS011;37774;52.192;4.584;2023-07-29T15:48:55;6.82;;;1.30;;
51686;SDS011;37774;52.192;4.584;2023-07-29T15:51:43;9.93;;;1.50;;
51686;SDS011;37774;52.192;4.584;2023-07-29T15:54:28;5.85;;;1.67;;
51686;SDS011;37774;52.192;4.584;2023-07-29T15:57:14;5.88;;;1.35;;
51686;SDS011;37774;52.192;4.584;2023-07-29T15:59:59;8.63;;;1.50;;
51686;SDS011;37774;52.192;4.584;2023-07-29T16:02:45;2.88;;;1.33;;
51686;SDS011;37774;52.192;4.584;2023-07-29T16:05:32;4.18;;;1.20;;
51686;SDS011;37774;52.192;4.584;2023-07-29T16:08:17;5.97;;;1.58;;
51686;SDS011;37774;52.192;4.584;2023-07-29T16:11:02;4.43;;;1.30;;
51686;SDS011;37774;52.192;4.584;2023-07-29T16:13:48;3.90;;;1.33;;
51686;SDS011;37774;52.192;4.584;2023-07-29T16:16:33;6.05;;;2.22;;
51686;SDS011;37774;52.192;4.584;2023-07-29T16:19:22;7.50;;;1.75;;
51686;SDS011;37774;52.192;4.584;2023-07-29T16:22:10;4.75;;;1.20;;
51686;SDS011;37774;52.192;4.584;2023-07-29T16:24:55;3.88;;;1.40;;
51686;SDS011;37774;52.192;4.584;2023-07-29T16:27:41;5.57;;;1.65;;
51686;SDS011;37774;52.192;4.584;2023-07-29T16:30:26;4.88;;;1.60;;
51686;SDS011;37774;52.192;4.584;2023-07-29T16:33:12;5.32;;;1.35;;
51686;SDS011;37774;52.192;4.584;2023-07-29T16:35:57;9.32;;;1.98;;
51686;SDS011;37774;52.192;4.584;2023-07-29T16:38:44;8.63;;;1.38;;
51686;SDS011;37774;52.192;4.584;2023-07-29T16:41:29;13.40;;;2.22;;
51686;SDS011;37774;52.192;4.584;2023-07-29T16:44:15;2.28;;;1.25;;
51686;SDS011;37774;52.192;4.584;2023-07-29T16:47:00;6.30;;;1.60;;
51686;SDS011;37774;52.192;4.584;2023-07-29T16:49:46;10.25;;;2.03;;
51686;SDS011;37774;52.192;4.584;2023-07-29T16:52:31;9.48;;;1.90;;
51686;SDS011;37774;52.192;4.584;2023-07-29T16:55:18;7.43;;;1.75;;
51686;SDS011;37774;52.192;4.584;2023-07-29T16:58:03;4.22;;;1.60;;
51686;SDS011;37774;52.192;4.584;2023-07-29T17:00:48;5.03;;;1.67;;
51686;SDS011;37774;52.192;4.584;2023-07-29T17:03:34;9.52;;;2.00;;
51686;SDS011;37774;52.192;4.584;2023-07-29T17:06:20;7.38;;;1.85;;
51686;SDS011;37774;52.192;4.584;2023-07-29T17:09:05;8.75;;;1.63;;
51686;SDS011;37774;52.192;4.584;2023-07-29T17:11:52;11.77;;;1.83;;
51686;SDS011;37774;52.192;4.584;2023-07-29T17:14:38;7.25;;;1.52;;
51686;SDS011;37774;52.192;4.584;2023-07-29T17:17:24;7.85;;;1.20;;
51686;SDS011;37774;52.192;4.584;2023-07-29T17:20:10;10.20;;;1.88;;
51686;SDS011;37774;52.192;4.584;2023-07-29T17:22:55;9.98;;;2.13;;
51686;SDS011;37774;52.192;4.584;2023-07-29T17:25:41;5.63;;;1.73;;
51686;SDS011;37774;52.192;4.584;2023-07-29T17:28:28;13.18;;;1.95;;
51686;SDS011;37774;52.192;4.584;2023-07-29T17:31:13;9.88;;;2.30;;
51686;SDS011;37774;52.192;4.584;2023-07-29T17:33:58;6.25;;;2.03;;
51686;SDS011;37774;52.192;4.584;2023-07-29T17:36:44;5.57;;;1.92;;
51686;SDS011;37774;52.192;4.584;2023-07-29T17:39:29;11.55;;;2.33;;
51686;SDS011;37774;52.192;4.584;2023-07-29T17:42:15;8.77;;;2.00;;
51686;SDS011;37774;52.192;4.584;2023-07-29T17:45:02;10.35;;;1.80;;
51686;SDS011;37774;52.192;4.584;2023-07-29T17:47:47;7.53;;;2.15;;
51686;SDS011;37774;52.192;4.584;2023-07-29T17:50:33;11.40;;;2.28;;
51686;SDS011;37774;52.192;4.584;2023-07-29T17:53:18;6.88;;;1.50;;
51686;SDS011;37774;52.192;4.584;2023-07-29T17:56:04;10.15;;;1.98;;
51686;SDS011;37774;52.192;4.584;2023-07-29T17:58:49;9.82;;;1.92;;
51686;SDS011;37774;52.192;4.584;2023-07-29T18:01:36;7.10;;;2.50;;
51686;SDS011;37774;52.192;4.584;2023-07-29T18:04:22;8.82;;;2.42;;
51686;SDS011;37774;52.192;4.584;2023-07-29T18:07:10;17.58;;;2.65;;
51686;SDS011;37774;52.192;4.584;2023-07-29T18:09:55;9.13;;;2.67;;
51686;SDS011;37774;52.192;4.584;2023-07-29T18:12:41;11.15;;;2.15;;
51686;SDS011;37774;52.192;4.584;2023-07-29T18:15:26;15.50;;;2.85;;
51686;SDS011;37774;52.192;4.584;2023-07-29T18:18:13;7.43;;;2.25;;
51686;SDS011;37774;52.192;4.584;2023-07-29T18:20:58;12.65;;;2.85;;
51686;SDS011;37774;52.192;4.584;2023-07-29T18:23:44;10.00;;;2.20;;
51686;SDS011;37774;52.192;4.584;2023-07-29T18:26:29;18.05;;;3.35;;
51686;SDS011;37774;52.192;4.584;2023-07-29T18:29:15;14.60;;;2.40;;
51686;SDS011;37774;52.192;4.584;2023-07-29T18:32:00;11.52;;;3.75;;
51686;SDS011;37774;52.192;4.584;2023-07-29T18:34:48;10.75;;;2.67;;
51686;SDS011;37774;52.192;4.584;2023-07-29T18:37:33;10.95;;;2.60;;
51686;SDS011;37774;52.192;4.584;2023-07-29T18:40:18;10.27;;;2.63;;
51686;SDS011;37774;52.192;4.584;2023-07-29T18:43:04;15.52;;;3.25;;
51686;SDS011;37774;52.192;4.584;2023-07-29T18:45:53;9.38;;;2.17;;
51686;SDS011;37774;52.192;4.584;2023-07-29T18:48:40;20.60;;;3.33;;
51686;SDS011;37774;52.192;4.584;2023-07-29T18:51:27;19.02;;;3.53;;
51686;SDS011;37774;52.192;4.584;2023-07-29T18:54:13;15.70;;;2.95;;
51686;SDS011;37774;52.192;4.584;2023-07-29T18:57:00;12.07;;;2.30;;
51686;SDS011;37774;52.192;4.584;2023-07-29T18:59:46;15.02;;;2.80;;
51686;SDS011;37774;52.192;4.584;2023-07-29T19:02:31;14.68;;;3.05;;
51686;SDS011;37774;52.192;4.584;2023-07-29T19:05:17;16.98;;;2.60;;
51686;SDS011;37774;52.192;4.584;2023-07-29T19:08:04;8.05;;;2.25;;
51686;SDS011;37774;52.192;4.584;2023-07-29T19:10:51;19.17;;;2.63;;
51686;SDS011;37774;52.192;4.584;2023-07-29T19:13:37;17.30;;;3.58;;
51686;SDS011;37774;52.192;4.584;2023-07-29T19:16:22;19.73;;;3.55;;
51686;SDS011;37774;52.192;4.584;2023-07-29T19:19:07;19.42;;;3.35;;
51686;SDS011;37774;52.192;4.584;2023-07-29T19:21:53;15.75;;;3.47;;
51686;SDS011;37774;52.192;4.584;2023-07-29T19:24:40;22.95;;;3.53;;
51686;SDS011;37774;52.192;4.584;2023-07-29T19:27:25;18.83;;;3.97;;
51686;SDS011;37774;52.192;4.584;2023-07-29T19:30:11;15.43;;;3.30;;
51686;SDS011;37774;52.192;4.584;2023-07-29T19:32:57;21.05;;;3.03;;
51686;SDS011;37774;52.192;4.584;2023-07-29T19:35:42;9.55;;;2.58;;
51686;SDS011;37774;52.192;4.584;2023-07-29T19:38:28;20.40;;;3.33;;
51686;SDS011;37774;52.192;4.584;2023-07-29T19:41:15;25.05;;;4.13;;
51686;SDS011;37774;52.192;4.584;2023-07-29T19:44:01;20.65;;;4.72;;
51686;SDS011;37774;52.192;4.584;2023-07-29T19:46:47;20.15;;;3.50;;
51686;SDS011;37774;52.192;4.584;2023-07-29T19:49:32;25.80;;;3.72;;
51686;SDS011;37774;52.192;4.584;2023-07-29T19:52:18;12.20;;;3.45;;
51686;SDS011;37774;52.192;4.584;2023-07-29T19:55:03;25.77;;;3.58;;
51686;SDS011;37774;52.192;4.584;2023-07-29T19:57:51;27.33;;;3.50;;
51686;SDS011;37774;52.192;4.584;2023-07-29T20:00:36;22.00;;;3.50;;
51686;SDS011;37774;52.192;4.584;2023-07-29T20:03:21;16.02;;;3.65;;
51686;SDS011;37774;52.192;4.584;2023-07-29T20:06:07;20.40;;;3.35;;
51686;SDS011;37774;52.192;4.584;2023-07-29T20:08:52;21.80;;;3.80;;
51686;SDS011;37774;52.192;4.584;2023-07-29T20:11:38;19.60;;;4.10;;
51686;SDS011;37774;52.192;4.584;2023-07-29T20:14:25;15.55;;;2.95;;
51686;SDS011;37774;52.192;4.584;2023-07-29T20:17:10;24.45;;;3.50;;
51686;SDS011;37774;52.192;4.584;2023-07-29T20:19:56;13.23;;;2.58;;
51686;SDS011;37774;52.192;4.584;2023-07-29T20:22:41;14.60;;;3.13;;
51686;SDS011;37774;52.192;4.584;2023-07-29T20:25:27;22.48;;;3.72;;
51686;SDS011;37774;52.192;4.584;2023-07-29T20:28:12;24.35;;;3.75;;
51686;SDS011;37774;52.192;4.584;2023-07-29T20:31:00;22.38;;;4.13;;
51686;SDS011;37774;52.192;4.584;2023-07-29T20:33:45;24.25;;;3.55;;
51686;SDS011;37774;52.192;4.584;2023-07-29T20:36:31;27.05;;;3.40;;
51686;SDS011;37774;52.192;4.584;2023-07-29T20:39:16;19.63;;;3.42;;
51686;SDS011;37774;52.192;4.584;2023-07-29T20:42:02;24.83;;;3.80;;